Time,TemperatureF,DewpointF,PressureIn,WindDirection,WindDirectionDegrees,WindSpeedMPH,WindSpeedGustMPH,Humidity,HourlyPrecipIn,Conditions,Clouds,dailyrainin,SolarRadiationWatts/m^2,SoftwareType,DateUTC
2013-01-11 00:05:00,35.4,34.0,29.79,SW,236,0.0,1.0,93,0.00,,,0.00,0,weatherlink.com 1.10,2013-01-10 23:05:00,
2013-01-11 00:20:00,35.2,33.0,29.79,SW,236,0.0,1.0,92,0.00,,,0.00,0,weatherlink.com 1.10,2013-01-10 23:20:00,
2013-01-11 00:36:00,34.5,33.0,29.79,SW,235,0.0,0.0,92,0.00,,,0.00,0,weatherlink.com 1.10,2013-01-10 23:36:00,
2013-01-11 00:51:00,33.9,32.0,29.79,WSW,237,0.0,2.0,92,0.00,,,0.00,0,weatherlink.com 1.10,2013-01-10 23:51:00,
2013-01-11 01:06:00,33.6,32.0,29.78,WSW,239,0.0,3.0,92,0.00,,,0.00,0,weatherlink.com 1.10,2013-01-11 00:06:00,
2013-01-11 01:21:00,34.4,33.0,29.78,WSW,237,0.0,1.0,93,0.00,,,0.00,0,weatherlink.com 1.10,2013-01-11 00:21:00,
2013-01-11 01:36:00,35.1,33.0,29.78,North,360,0.0,1.0,93,0.00,,,0.00,0,weatherlink.com 1.10,2013-01-11 00:36:00,
2013-01-11 01:51:00,35.1,33.0,29.78,SW,236,0.0,1.0,93,0.00,,,0.00,0,weatherlink.com 1.10,2013-01-11 00:51:00,
2013-01-11 02:06:00,34.5,33.0,29.78,SW,236,0.0,0.0,92,0.00,,,0.00,0,weatherlink.com 1.10,2013-01-11 01:06:00,
2013-01-11 02:36:00,34.7,33.0,29.77,SW,236,0.0,1.0,93,0.00,,,0.00,0,weatherlink.com 1.10,2013-01-11 01:36:00,
2013-01-11 02:51:00,34.6,33.0,29.77,North,360,0.0,1.0,93,0.00,,,0.00,0,weatherlink.com 1.10,2013-01-11 01:51:00,
2013-01-11 03:06:00,34.7,33.0,29.77,SW,235,0.0,0.0,93,0.00,,,0.00,0,weatherlink.com 1.10,2013-01-11 02:06:00,
2013-01-11 03:21:00,35.2,33.0,29.76,SW,236,0.0,2.0,93,0.00,,,0.00,0,weatherlink.com 1.10,2013-01-11 02:21:00,
2013-01-11 03:36:00,35.2,33.0,29.76,SW,233,0.0,1.0,93,0.00,,,0.00,0,weatherlink.com 1.10,2013-01-11 02:36:00,
2013-01-11 03:51:00,35.1,33.0,29.76,SW,227,0.0,3.0,93,0.00,,,0.00,0,weatherlink.com 1.10,2013-01-11 02:51:00,
2013-01-11 04:06:00,35.6,34.0,29.76,SW,227,0.0,2.0,93,0.00,,,0.00,0,weatherlink.com 1.10,2013-01-11 03:06:00,
2013-01-11 04:21:00,35.8,34.0,29.76,SW,227,0.0,2.0,93,0.00,,,0.00,0,weatherlink.com 1.10,2013-01-11 03:21:00,
2013-01-11 04:36:00,36.0,34.0,29.76,North,360,0.0,1.0,92,0.00,,,0.00,0,weatherlink.com 1.10,2013-01-11 03:36:00,
2013-01-11 04:51:00,36.3,34.0,29.76,North,360,0.0,3.0,92,0.00,,,0.00,0,weatherlink.com 1.10,2013-01-11 03:51:00,
2013-01-11 05:06:00,36.8,35.0,29.76,SW,234,0.0,2.0,91,0.00,,,0.00,0,weatherlink.com 1.10,2013-01-11 04:06:00,
2013-01-11 05:21:00,37.0,35.0,29.76,SW,232,0.0,2.0,91,0.00,,,0.00,0,weatherlink.com 1.10,2013-01-11 04:21:00,
2013-01-11 05:36:00,37.2,35.0,29.76,SW,236,0.0,1.0,90,0.00,,,0.00,0,weatherlink.com 1.10,2013-01-11 04:36:00,
2013-01-11 05:51:00,37.2,35.0,29.75,SW,234,0.0,3.0,90,0.01,,,0.01,0,weatherlink.com 1.10,2013-01-11 04:51:00,
2013-01-11 06:06:00,37.2,35.0,29.76,SW,234,0.0,4.0,90,0.01,,,0.01,0,weatherlink.com 1.10,2013-01-11 05:06:00,
2013-01-11 06:21:00,37.4,35.0,29.75,North,360,0.0,2.0,89,0.01,,,0.01,0,weatherlink.com 1.10,2013-01-11 05:21:00,
2013-01-11 06:36:00,37.6,35.0,29.76,SW,235,0.0,2.0,89,0.01,,,0.01,0,weatherlink.com 1.10,2013-01-11 05:36:00,
2013-01-11 06:51:00,37.7,35.0,29.76,WSW,237,0.0,1.0,89,0.00,,,0.01,0,weatherlink.com 1.10,2013-01-11 05:51:00,
2013-01-11 07:06:00,37.7,35.0,29.76,WSW,238,2.0,2.0,88,0.00,,,0.01,0,weatherlink.com 1.10,2013-01-11 06:06:00,
2013-01-11 07:21:00,37.6,34.0,29.76,SW,236,0.0,0.0,88,0.00,,,0.01,0,weatherlink.com 1.10,2013-01-11 06:21:00,
2013-01-11 07:36:00,37.3,34.0,29.76,SW,236,0.0,1.0,88,0.00,,,0.01,0,weatherlink.com 1.10,2013-01-11 06:36:00,
2013-01-11 07:51:00,36.9,34.0,29.77,SW,236,0.0,3.0,88,0.00,,,0.01,0,weatherlink.com 1.10,2013-01-11 06:51:00,
2013-01-11 08:06:00,36.7,34.0,29.77,WSW,237,0.0,1.0,89,0.01,,,0.02,12,weatherlink.com 1.10,2013-01-11 07:06:00,
2013-01-11 08:21:00,37.8,35.0,29.77,North,360,0.0,5.0,90,0.01,,,0.02,28,weatherlink.com 1.10,2013-01-11 07:21:00,
2013-01-11 08:36:00,38.5,35.0,29.77,WSW,244,1.0,5.0,88,0.01,,,0.02,58,weatherlink.com 1.10,2013-01-11 07:36:00,
2013-01-11 08:51:00,41.2,37.0,29.77,North,360,0.0,4.0,86,0.01,,,0.02,227,weatherlink.com 1.10,2013-01-11 07:51:00,
2013-01-11 09:06:00,41.5,37.0,29.77,WSW,239,1.0,4.0,83,0.02,,,0.03,65,weatherlink.com 1.10,2013-01-11 08:06:00,
2013-01-11 09:36:00,40.6,37.0,29.77,North,360,2.0,5.0,85,0.03,,,0.05,97,weatherlink.com 1.10,2013-01-11 08:36:00,
2013-01-11 09:51:00,40.7,37.0,29.76,SW,229,3.0,5.0,85,0.05,,,0.06,128,weatherlink.com 1.10,2013-01-11 08:51:00,
2013-01-11 10:21:00,41.8,37.0,29.77,SW,223,1.0,7.0,82,0.04,,,0.08,195,weatherlink.com 1.10,2013-01-11 09:21:00,
2013-01-11 10:52:00,40.9,36.0,29.78,SW,226,1.0,3.0,81,0.03,,,0.09,28,weatherlink.com 1.10,2013-01-11 09:52:00,
2013-01-11 11:06:00,40.5,35.0,29.78,North,360,0.0,7.0,81,0.03,,,0.10,18,weatherlink.com 1.10,2013-01-11 10:06:00,
2013-01-11 11:21:00,39.9,35.0,29.78,North,355,0.0,5.0,81,0.02,,,0.10,32,weatherlink.com 1.10,2013-01-11 10:21:00,
2013-01-11 11:36:00,39.7,35.0,29.78,WSW,237,0.0,3.0,82,0.02,,,0.11,30,weatherlink.com 1.10,2013-01-11 10:36:00,
2013-01-11 11:52:00,39.5,34.0,29.78,North,360,1.0,5.0,82,0.02,,,0.11,84,weatherlink.com 1.10,2013-01-11 10:52:00,
2013-01-11 12:22:00,40.1,35.0,29.78,North,360,1.0,8.0,81,0.02,,,0.12,84,weatherlink.com 1.10,2013-01-11 11:22:00,
2013-01-11 12:37:00,40.0,35.0,29.78,WNW,297,0.0,4.0,81,0.02,,,0.13,25,weatherlink.com 1.10,2013-01-11 11:37:00,
2013-01-11 12:52:00,39.7,35.0,29.78,NW,325,2.0,7.0,82,0.02,,,0.13,42,weatherlink.com 1.10,2013-01-11 11:52:00,
2013-01-11 13:07:00,39.6,34.0,29.79,NNW,348,8.0,8.0,81,0.02,,,0.13,113,weatherlink.com 1.10,2013-01-11 12:07:00,
2013-01-11 13:22:00,39.7,34.0,29.79,NW,326,1.0,8.0,79,0.01,,,0.13,165,weatherlink.com 1.10,2013-01-11 12:22:00,
2013-01-11 13:37:00,40.5,34.0,29.79,NNE,22,6.0,9.0,76,0.00,,,0.13,258,weatherlink.com 1.10,2013-01-11 12:37:00,
2013-01-11 13:52:00,41.0,33.0,29.81,NNW,338,3.0,7.0,74,0.01,,,0.13,62,weatherlink.com 1.10,2013-01-11 12:52:00,
2013-01-11 14:22:00,39.2,32.0,29.81,North,5,0.0,6.0,76,0.01,,,0.13,70,weatherlink.com 1.10,2013-01-11 13:22:00,
2013-01-11 14:37:00,38.8,31.0,29.82,NNW,330,0.0,3.0,73,0.01,,,0.13,62,weatherlink.com 1.10,2013-01-11 13:37:00,
2013-01-11 14:52:00,38.9,30.0,29.82,NNW,329,0.0,8.0,71,0.00,,,0.13,146,weatherlink.com 1.10,2013-01-11 13:52:00,
2013-01-11 15:07:00,37.6,29.0,29.83,NNW,336,1.0,8.0,70,0.00,,,0.13,56,weatherlink.com 1.10,2013-01-11 14:07:00,
2013-01-11 15:22:00,36.7,28.0,29.84,NNW,329,0.0,6.0,72,0.00,,,0.13,47,weatherlink.com 1.10,2013-01-11 14:22:00,
2013-01-11 15:37:00,36.1,28.0,29.84,NNE,14,2.0,7.0,73,0.00,,,0.13,28,weatherlink.com 1.10,2013-01-11 14:37:00,
2013-01-11 15:52:00,35.5,27.0,29.85,NE,39,0.0,7.0,72,0.00,,,0.13,21,weatherlink.com 1.10,2013-01-11 14:52:00,
2013-01-11 16:07:00,34.5,26.0,29.86,North,350,4.0,8.0,72,0.00,,,0.13,7,weatherlink.com 1.10,2013-01-11 15:07:00,
2013-01-11 16:22:00,33.7,26.0,29.86,SW,232,1.0,5.0,72,0.00,,,0.13,0,weatherlink.com 1.10,2013-01-11 15:22:00,
2013-01-11 16:37:00,33.1,26.0,29.87,North,360,0.0,3.0,74,0.00,,,0.13,0,weatherlink.com 1.10,2013-01-11 15:37:00,
2013-01-11 16:52:00,32.7,26.0,29.88,South,177,0.0,3.0,75,0.00,,,0.13,0,weatherlink.com 1.10,2013-01-11 15:52:00,
2013-01-11 17:22:00,32.0,25.0,29.88,North,360,0.0,3.0,76,0.00,,,0.13,0,weatherlink.com 1.10,2013-01-11 16:22:00,
2013-01-11 17:37:00,31.8,25.0,29.88,WSW,252,4.0,7.0,77,0.00,,,0.13,0,weatherlink.com 1.10,2013-01-11 16:37:00,
2013-01-11 17:52:00,31.9,25.0,29.89,South,172,1.0,5.0,76,0.00,,,0.13,0,weatherlink.com 1.10,2013-01-11 16:52:00,
2013-01-11 18:07:00,31.7,25.0,29.89,North,360,0.0,6.0,77,0.00,,,0.13,0,weatherlink.com 1.10,2013-01-11 17:07:00,
2013-01-11 18:22:00,31.6,25.0,29.89,NNW,339,2.0,4.0,77,0.00,,,0.13,0,weatherlink.com 1.10,2013-01-11 17:22:00,
2013-01-11 18:37:00,31.6,25.0,29.90,WSW,241,2.0,6.0,76,0.00,,,0.13,0,weatherlink.com 1.10,2013-01-11 17:37:00,
2013-01-11 19:22:00,31.2,24.0,29.92,NNE,24,1.0,7.0,76,0.00,,,0.13,0,weatherlink.com 1.10,2013-01-11 18:22:00,
2013-01-11 19:37:00,31.1,24.0,29.92,SW,230,1.0,6.0,76,0.00,,,0.13,0,weatherlink.com 1.10,2013-01-11 18:37:00,
2013-01-11 19:52:00,31.1,24.0,29.92,South,187,2.0,8.0,76,0.00,,,0.13,0,weatherlink.com 1.10,2013-01-11 18:52:00,
2013-01-11 20:08:00,30.9,25.0,29.93,WSW,250,5.0,7.0,77,0.00,,,0.13,0,weatherlink.com 1.10,2013-01-11 19:08:00,
2013-01-11 20:23:00,30.9,25.0,29.94,NNE,20,2.0,6.0,77,0.00,,,0.13,0,weatherlink.com 1.10,2013-01-11 19:23:00,
2013-01-11 20:38:00,31.0,24.0,29.94,NW,304,3.0,7.0,76,0.00,,,0.13,0,weatherlink.com 1.10,2013-01-11 19:38:00,
2013-01-11 20:53:00,31.2,24.0,29.95,WSW,248,1.0,11.0,75,0.00,,,0.13,0,weatherlink.com 1.10,2013-01-11 19:53:00,
2013-01-11 21:08:00,31.1,24.0,29.95,SW,217,2.0,8.0,75,0.00,,,0.13,0,weatherlink.com 1.10,2013-01-11 20:08:00,
2013-01-11 21:23:00,30.8,24.0,29.96,North,360,2.0,7.0,76,0.00,,,0.13,0,weatherlink.com 1.10,2013-01-11 20:23:00,
2013-01-11 22:08:00,30.4,24.0,29.97,SSE,156,0.0,10.0,76,0.00,,,0.13,0,weatherlink.com 1.10,2013-01-11 21:08:00,
2013-01-11 22:23:00,30.2,24.0,29.98,SW,220,3.0,9.0,76,0.00,,,0.13,0,weatherlink.com 1.10,2013-01-11 21:23:00,
2013-01-11 22:38:00,30.0,24.0,29.99,West,280,4.0,10.0,77,0.00,,,0.13,0,weatherlink.com 1.10,2013-01-11 21:38:00,
2013-01-11 22:53:00,30.0,24.0,29.99,West,265,4.0,7.0,77,0.00,,,0.13,0,weatherlink.com 1.10,2013-01-11 21:53:00,
2013-01-11 23:08:00,29.9,24.0,30.00,SW,229,2.0,7.0,77,0.00,,,0.13,0,weatherlink.com 1.10,2013-01-11 22:08:00,
2013-01-11 23:23:00,29.8,23.0,29.99,NE,56,2.0,9.0,77,0.00,,,0.13,0,weatherlink.com 1.10,2013-01-11 22:23:00,
2013-01-11 23:38:00,29.9,24.0,30.00,SE,125,4.0,7.0,77,0.00,,,0.13,0,weatherlink.com 1.10,2013-01-11 22:38:00,
2013-01-11 23:53:00,29.7,23.0,30.00,West,270,1.0,6.0,77,0.00,,,0.13,0,weatherlink.com 1.10,2013-01-11 22:53:00,